sensor_id;sensor_type;location;lat;lon;timestamp;P1;durP1;ratioP1;P2;durP2;ratioP2
25327;SDS011;13279;51.300;12.394;2023-06-22T00:01:18;17.13;;;9.30;;
25327;SDS011;13279;51.300;12.394;2023-06-22T00:03:46;12.53;;;8.83;;
25327;SDS011;13279;51.300;12.394;2023-06-22T00:06:13;10.90;;;8.40;;
25327;SDS011;13279;51.300;12.394;2023-06-22T00:08:41;13.93;;;9.00;;
25327;SDS011;13279;51.300;12.394;2023-06-22T00:11:10;10.83;;;8.60;;
25327;SDS011;13279;51.300;12.394;2023-06-22T00:13:38;14.53;;;9.67;;
25327;SDS011;13279;51.300;12.394;2023-06-22T00:16:05;13.00;;;9.23;;
25327;SDS011;13279;51.300;12.394;2023-06-22T00:18:33;14.10;;;8.53;;
25327;SDS011;13279;51.300;12.394;2023-06-22T00:21:00;14.60;;;9.10;;
25327;SDS011;13279;51.300;12.394;2023-06-22T00:23:28;14.30;;;9.10;;
25327;SDS011;13279;51.300;12.394;2023-06-22T00:26:00;15.23;;;9.47;;
25327;SDS011;13279;51.300;12.394;2023-06-22T00:28:28;12.60;;;9.17;;
25327;SDS011;13279;51.300;12.394;2023-06-22T00:30:56;12.60;;;8.40;;
25327;SDS011;13279;51.300;12.394;2023-06-22T00:33:24;14.33;;;8.93;;
25327;SDS011;13279;51.300;12.394;2023-06-22T00:35:54;9.73;;;8.73;;
25327;SDS011;13279;51.300;12.394;2023-06-22T00:38:21;13.50;;;9.53;;
25327;SDS011;13279;51.300;12.394;2023-06-22T00:40:48;16.27;;;9.53;;
25327;SDS011;13279;51.300;12.394;2023-06-22T00:43:16;13.27;;;9.20;;
25327;SDS011;13279;51.300;12.394;2023-06-22T00:45:45;13.23;;;8.80;;
25327;SDS011;13279;51.300;12.394;2023-06-22T00:48:12;13.53;;;9.37;;
25327;SDS011;13279;51.300;12.394;2023-06-22T00:50:41;13.13;;;9.10;;
25327;SDS011;13279;51.300;12.394;2023-06-22T00:53:09;12.90;;;9.27;;
25327;SDS011;13279;51.300;12.394;2023-06-22T00:55:38;12.80;;;9.23;;
25327;SDS011;13279;51.300;12.394;2023-06-22T00:58:09;12.90;;;9.50;;
25327;SDS011;13279;51.300;12.394;2023-06-22T01:00:37;12.23;;;8.47;;
25327;SDS011;13279;51.300;12.394;2023-06-22T01:03:07;10.93;;;9.23;;
25327;SDS011;13279;51.300;12.394;2023-06-22T01:05:35;11.60;;;9.00;;
25327;SDS011;13279;51.300;12.394;2023-06-22T01:08:05;11.23;;;9.23;;
25327;SDS011;13279;51.300;12.394;2023-06-22T01:10:41;11.23;;;9.57;;
25327;SDS011;13279;51.300;12.394;2023-06-22T01:13:14;13.20;;;8.50;;
25327;SDS011;13279;51.300;12.394;2023-06-22T01:15:51;12.43;;;8.97;;
25327;SDS011;13279;51.300;12.394;2023-06-22T01:18:25;11.43;;;9.47;;
25327;SDS011;13279;51.300;12.394;2023-06-22T01:20:56;14.03;;;9.67;;
25327;SDS011;13279;51.300;12.394;2023-06-22T01:23:26;15.07;;;8.97;;
25327;SDS011;13279;51.300;12.394;2023-06-22T01:26:02;10.00;;;8.83;;
25327;SDS011;13279;51.300;12.394;2023-06-22T01:28:46;10.93;;;9.10;;
25327;SDS011;13279;51.300;12.394;2023-06-22T01:31:17;9.23;;;7.77;;
25327;SDS011;13279;51.300;12.394;2023-06-22T01:33:48;11.57;;;9.23;;
25327;SDS011;13279;51.300;12.394;2023-06-22T01:36:18;12.27;;;9.77;;
25327;SDS011;13279;51.300;12.394;2023-06-22T01:38:46;12.43;;;10.03;;
25327;SDS011;13279;51.300;12.394;2023-06-22T01:41:15;11.90;;;9.53;;
25327;SDS011;13279;51.300;12.394;2023-06-22T01:43:46;11.87;;;9.33;;
25327;SDS011;13279;51.300;12.394;2023-06-22T01:46:15;10.77;;;8.93;;
25327;SDS011;13279;51.300;12.394;2023-06-22T01:48:44;13.33;;;9.27;;
25327;SDS011;13279;51.300;12.394;2023-06-22T01:51:13;11.60;;;9.07;;
25327;SDS011;13279;51.300;12.394;2023-06-22T01:53:40;16.40;;;8.87;;
25327;SDS011;13279;51.300;12.394;2023-06-22T01:56:08;12.00;;;9.27;;
25327;SDS011;13279;51.300;12.394;2023-06-22T01:58:37;11.17;;;8.17;;
25327;SDS011;13279;51.300;12.394;2023-06-22T02:01:13;13.53;;;9.57;;
25327;SDS011;13279;51.300;12.394;2023-06-22T02:03:46;13.27;;;9.73;;
25327;SDS011;13279;51.300;12.394;2023-06-22T02:06:21;16.97;;;10.43;;
25327;SDS011;13279;51.300;12.394;2023-06-22T02:08:56;13.57;;;10.77;;
25327;SDS011;13279;51.300;12.394;2023-06-22T02:11:27;15.60;;;10.97;;
25327;SDS011;13279;51.300;12.394;2023-06-22T02:13:57;15.67;;;9.93;;
25327;SDS011;13279;51.300;12.394;2023-06-22T02:16:26;18.20;;;10.10;;
25327;SDS011;13279;51.300;12.394;2023-06-22T02:18:55;14.67;;;10.20;;
25327;SDS011;13279;51.300;12.394;2023-06-22T02:21:27;12.43;;;9.77;;
25327;SDS011;13279;51.300;12.394;2023-06-22T02:23:55;17.70;;;11.93;;
25327;SDS011;13279;51.300;12.394;2023-06-22T02:26:22;17.47;;;10.70;;
25327;SDS011;13279;51.300;12.394;2023-06-22T02:28:53;15.97;;;9.83;;
25327;SDS011;13279;51.300;12.394;2023-06-22T02:31:20;14.20;;;10.27;;
25327;SDS011;13279;51.300;12.394;2023-06-22T02:33:49;17.57;;;11.20;;
25327;SDS011;13279;51.300;12.394;2023-06-22T02:36:18;16.13;;;10.20;;
25327;SDS011;13279;51.300;12.394;2023-06-22T02:38:50;13.73;;;10.07;;
25327;SDS011;13279;51.300;12.394;2023-06-22T02:41:17;14.23;;;10.90;;
25327;SDS011;13279;51.300;12.394;2023-06-22T02:43:45;18.30;;;10.57;;
25327;SDS011;13279;51.300;12.394;2023-06-22T02:46:13;14.40;;;11.07;;
25327;SDS011;13279;51.300;12.394;2023-06-22T02:48:41;14.83;;;12.20;;
25327;SDS011;13279;51.300;12.394;2023-06-22T02:51:10;18.00;;;13.67;;
25327;SDS011;13279;51.300;12.394;2023-06-22T02:53:37;15.03;;;12.33;;
25327;SDS011;13279;51.300;12.394;2023-06-22T02:56:04;19.07;;;12.93;;
25327;SDS011;13279;51.300;12.394;2023-06-22T02:58:36;16.47;;;13.80;;
25327;SDS011;13279;51.300;12.394;2023-06-22T03:01:07;19.33;;;14.17;;
25327;SDS011;13279;51.300;12.394;2023-06-22T03:03:39;19.37;;;13.60;;
25327;SDS011;13279;51.300;12.394;2023-06-22T03:06:06;17.80;;;12.93;;
25327;SDS011;13279;51.300;12.394;2023-06-22T03:08:41;18.40;;;12.83;;
25327;SDS011;13279;51.300;12.394;2023-06-22T03:11:10;18.43;;;13.97;;
25327;SDS011;13279;51.300;12.394;2023-06-22T03:13:37;17.37;;;12.70;;
25327;SDS011;13279;51.300;12.394;2023-06-22T03:16:06;21.07;;;13.33;;
25327;SDS011;13279;51.300;12.394;2023-06-22T03:18:34;16.50;;;12.90;;
25327;SDS011;13279;51.300;12.394;2023-06-22T03:21:01;14.50;;;12.90;;
25327;SDS011;13279;51.300;12.394;2023-06-22T03:23:30;16.13;;;12.73;;
25327;SDS011;13279;51.300;12.394;2023-06-22T03:25:59;21.70;;;13.17;;
25327;SDS011;13279;51.300;12.394;2023-06-22T03:28:26;18.17;;;12.13;;
25327;SDS011;13279;51.300;12.394;2023-06-22T03:30:54;17.30;;;13.40;;
25327;SDS011;13279;51.300;12.394;2023-06-22T03:33:24;18.83;;;13.33;;
25327;SDS011;13279;51.300;12.394;2023-06-22T03:35:51;21.17;;;12.53;;
25327;SDS011;13279;51.300;12.394;2023-06-22T03:38:20;17.77;;;12.90;;
25327;SDS011;13279;51.300;12.394;2023-06-22T03:40:52;17.90;;;12.87;;
25327;SDS011;13279;51.300;12.394;2023-06-22T03:43:21;19.77;;;13.97;;
25327;SDS011;13279;51.300;12.394;2023-06-22T03:45:49;15.80;;;12.23;;
25327;SDS011;13279;51.300;12.394;2023-06-22T03:48:17;16.53;;;13.20;;
25327;SDS011;13279;51.300;12.394;2023-06-22T03:50:45;16.27;;;12.90;;
25327;SDS011;13279;51.300;12.394;2023-06-22T03:53:12;15.33;;;12.23;;
25327;SDS011;13279;51.300;12.394;2023-06-22T03:55:47;17.03;;;13.00;;
25327;SDS011;13279;51.300;12.394;2023-06-22T03:58:16;17.70;;;13.03;;
25327;SDS011;13279;51.300;12.394;2023-06-22T04:00:46;14.73;;;11.37;;
25327;SDS011;13279;51.300;12.394;2023-06-22T04:03:13;18.10;;;12.77;;
25327;SDS011;13279;51.300;12.394;2023-06-22T04:05:41;17.03;;;12.73;;
25327;SDS011;13279;51.300;12.394;2023-06-22T04:08:15;17.23;;;12.63;;
25327;SDS011;13279;51.300;12.394;2023-06-22T04:10:52;18.73;;;12.50;;
25327;SDS011;13279;51.300;12.394;2023-06-22T04:13:24;17.93;;;12.67;;
25327;SDS011;13279;51.300;12.394;2023-06-22T04:15:57;22.70;;;13.50;;
25327;SDS011;13279;51.300;12.394;2023-06-22T04:19:05;21.87;;;13.87;;
25327;SDS011;13279;51.300;12.394;2023-06-22T04:21:42;20.63;;;13.87;;
25327;SDS011;13279;51.300;12.394;2023-06-22T04:24:09;24.10;;;13.83;;
25327;SDS011;13279;51.300;12.394;2023-06-22T04:26:41;21.53;;;13.80;;
25327;SDS011;13279;51.300;12.394;2023-06-22T04:29:12;16.57;;;14.07;;
25327;SDS011;13279;51.300;12.394;2023-06-22T04:31:41;22.73;;;14.43;;
25327;SDS011;13279;51.300;12.394;2023-06-22T04:34:08;25.83;;;13.77;;
25327;SDS011;13279;51.300;12.394;2023-06-22T04:36:36;21.23;;;14.13;;
25327;SDS011;13279;51.300;12.394;2023-06-22T04:39:05;19.03;;;13.47;;
25327;SDS011;13279;51.300;12.394;2023-06-22T04:41:35;22.70;;;14.47;;
25327;SDS011;13279;51.300;12.394;2023-06-22T04:44:09;22.60;;;15.63;;
25327;SDS011;13279;51.300;12.394;2023-06-22T04:46:37;23.27;;;15.60;;
25327;SDS011;13279;51.300;12.394;2023-06-22T04:49:07;23.27;;;15.40;;
25327;SDS011;13279;51.300;12.394;2023-06-22T04:51:39;27.80;;;15.73;;
25327;SDS011;13279;51.300;12.394;2023-06-22T04:54:07;22.67;;;15.90;;
25327;SDS011;13279;51.300;12.394;2023-06-22T04:56:36;23.33;;;15.53;;
25327;SDS011;13279;51.300;12.394;2023-06-22T04:59:06;22.63;;;16.37;;
25327;SDS011;13279;51.300;12.394;2023-06-22T05:01:38;20.60;;;15.23;;
25327;SDS011;13279;51.300;12.394;2023-06-22T05:04:07;19.90;;;15.30;;
25327;SDS011;13279;51.300;12.394;2023-06-22T05:06:34;22.50;;;16.03;;
25327;SDS011;13279;51.300;12.394;2023-06-22T05:09:02;24.40;;;17.40;;
25327;SDS011;13279;51.300;12.394;2023-06-22T05:11:34;21.43;;;14.83;;
25327;SDS011;13279;51.300;12.394;2023-06-22T05:14:03;23.97;;;16.43;;
25327;SDS011;13279;51.300;12.394;2023-06-22T05:16:30;24.83;;;16.37;;
25327;SDS011;13279;51.300;12.394;2023-06-22T05:19:06;26.53;;;16.40;;
25327;SDS011;13279;51.300;12.394;2023-06-22T05:21:35;22.53;;;14.43;;
25327;SDS011;13279;51.300;12.394;2023-06-22T05:24:06;25.67;;;16.57;;
25327;SDS011;13279;51.300;12.394;2023-06-22T05:26:33;22.23;;;15.60;;
25327;SDS011;13279;51.300;12.394;2023-06-22T05:29:02;22.17;;;16.63;;
25327;SDS011;13279;51.300;12.394;2023-06-22T05:31:30;24.10;;;15.67;;
25327;SDS011;13279;51.300;12.394;2023-06-22T05:33:57;22.67;;;15.40;;
25327;SDS011;13279;51.300;12.394;2023-06-22T05:36:26;20.50;;;14.83;;
25327;SDS011;13279;51.300;12.394;2023-06-22T05:38:56;19.13;;;14.37;;
25327;SDS011;13279;51.300;12.394;2023-06-22T05:41:24;21.37;;;14.33;;
25327;SDS011;13279;51.300;12.394;2023-06-22T05:43:51;17.80;;;14.17;;
25327;SDS011;13279;51.300;12.394;2023-06-22T05:46:19;15.93;;;13.60;;
25327;SDS011;13279;51.300;12.394;2023-06-22T05:48:46;22.53;;;13.43;;
25327;SDS011;13279;51.300;12.394;2023-06-22T05:51:14;27.97;;;13.70;;
25327;SDS011;13279;51.300;12.394;2023-06-22T05:53:43;20.63;;;14.07;;
25327;SDS011;13279;51.300;12.394;2023-06-22T05:56:15;17.87;;;12.90;;
25327;SDS011;13279;51.300;12.394;2023-06-22T05:58:42;25.80;;;13.10;;
25327;SDS011;13279;51.300;12.394;2023-06-22T06:01:09;20.10;;;13.37;;
25327;SDS011;13279;51.300;12.394;2023-06-22T06:03:37;16.77;;;13.33;;
25327;SDS011;13279;51.300;12.394;2023-06-22T06:06:06;33.20;;;14.07;;
25327;SDS011;13279;51.300;12.394;2023-06-22T06:08:33;26.30;;;13.10;;
25327;SDS011;13279;51.300;12.394;2023-06-22T06:11:02;18.37;;;14.33;;
25327;SDS011;13279;51.300;12.394;2023-06-22T06:13:30;19.13;;;12.83;;
25327;SDS011;13279;51.300;12.394;2023-06-22T06:15:57;18.40;;;12.53;;
25327;SDS011;13279;51.300;12.394;2023-06-22T06:18:30;19.90;;;12.40;;
25327;SDS011;13279;51.300;12.394;2023-06-22T06:20:58;16.57;;;12.67;;
25327;SDS011;13279;51.300;12.394;2023-06-22T06:23:26;13.20;;;10.97;;
25327;SDS011;13279;51.300;12.394;2023-06-22T06:25:56;17.93;;;11.50;;
25327;SDS011;13279;51.300;12.394;2023-06-22T06:28:26;16.70;;;11.13;;
25327;SDS011;13279;51.300;12.394;2023-06-22T06:30:59;16.50;;;11.43;;
25327;SDS011;13279;51.300;12.394;2023-06-22T06:33:29;19.10;;;10.83;;
25327;SDS011;13279;51.300;12.394;2023-06-22T06:35:57;18.87;;;11.17;;
25327;SDS011;13279;51.300;12.394;2023-06-22T06:38:33;18.33;;;9.67;;
25327;SDS011;13279;51.300;12.394;2023-06-22T06:41:04;14.97;;;10.83;;
25327;SDS011;13279;51.300;12.394;2023-06-22T06:43:35;17.17;;;10.90;;
25327;SDS011;13279;51.300;12.394;2023-06-22T06:46:04;12.47;;;10.30;;
25327;SDS011;13279;51.300;12.394;2023-06-22T06:48:32;21.00;;;10.10;;
25327;SDS011;13279;51.300;12.394;2023-06-22T06:51:04;17.03;;;9.70;;
25327;SDS011;13279;51.300;12.394;2023-06-22T06:53:35;13.67;;;9.63;;
25327;SDS011;13279;51.300;12.394;2023-06-22T06:56:03;20.03;;;10.73;;
25327;SDS011;13279;51.300;12.394;2023-06-22T06:58:36;12.43;;;9.07;;
25327;SDS011;13279;51.300;12.394;2023-06-22T07:01:04;20.27;;;9.60;;
25327;SDS011;13279;51.300;12.394;2023-06-22T07:03:32;11.77;;;8.87;;
25327;SDS011;13279;51.300;12.394;2023-06-22T07:06:02;17.93;;;8.93;;
25327;SDS011;13279;51.300;12.394;2023-06-22T07:08:29;15.50;;;8.47;;
25327;SDS011;13279;51.300;12.394;2023-06-22T07:10:57;13.07;;;9.77;;
25327;SDS011;13279;51.300;12.394;2023-06-22T07:13:26;9.70;;;8.07;;
25327;SDS011;13279;51.300;12.394;2023-06-22T07:15:56;14.67;;;9.13;;
25327;SDS011;13279;51.300;12.394;2023-06-22T07:18:24;15.80;;;8.93;;
25327;SDS011;13279;51.300;12.394;2023-06-22T07:20:52;19.50;;;9.90;;
25327;SDS011;13279;51.300;12.394;2023-06-22T07:23:24;12.03;;;9.57;;
25327;SDS011;13279;51.300;12.394;2023-06-22T07:25:52;12.17;;;9.40;;
25327;SDS011;13279;51.300;12.394;2023-06-22T07:28:26;15.03;;;9.27;;
25327;SDS011;13279;51.300;12.394;2023-06-22T07:31:08;11.20;;;8.37;;
25327;SDS011;13279;51.300;12.394;2023-06-22T07:33:55;12.83;;;8.93;;
25327;SDS011;13279;51.300;12.394;2023-06-22T07:36:23;19.80;;;8.80;;
25327;SDS011;13279;51.300;12.394;2023-06-22T07:38:50;15.13;;;9.90;;
25327;SDS011;13279;51.300;12.394;2023-06-22T07:41:20;12.33;;;9.50;;
25327;SDS011;13279;51.300;12.394;2023-06-22T07:43:48;10.83;;;8.47;;
25327;SDS011;13279;51.300;12.394;2023-06-22T07:46:17;12.13;;;9.10;;
25327;SDS011;13279;51.300;12.394;2023-06-22T07:48:44;11.07;;;9.10;;
25327;SDS011;13279;51.300;12.394;2023-06-22T07:51:16;14.03;;;9.17;;
25327;SDS011;13279;51.300;12.394;2023-06-22T07:54:15;14.30;;;9.53;;
25327;SDS011;13279;51.300;12.394;2023-06-22T07:56:48;12.90;;;9.23;;
25327;SDS011;13279;51.300;12.394;2023-06-22T07:59:24;12.50;;;7.97;;
25327;SDS011;13279;51.300;12.394;2023-06-22T08:05:37;13.52;;;8.75;;
25327;SDS011;13279;51.300;12.394;2023-06-22T08:08:25;12.18;;;8.75;;
25327;SDS011;13279;51.300;12.394;2023-06-22T08:11:06;13.52;;;8.02;;
25327;SDS011;13279;51.300;12.394;2023-06-22T08:13:45;13.38;;;8.32;;
25327;SDS011;13279;51.300;12.394;2023-06-22T08:16:23;12.77;;;8.15;;
25327;SDS011;13279;51.300;12.394;2023-06-22T08:19:09;11.52;;;7.97;;
25327;SDS011;13279;51.300;12.394;2023-06-22T08:24:40;11.52;;;7.40;;
25327;SDS011;13279;51.300;12.394;2023-06-22T08:27:11;13.23;;;8.52;;
25327;SDS011;13279;51.300;12.394;2023-06-22T08:29:43;11.13;;;8.93;;
25327;SDS011;13279;51.300;12.394;2023-06-22T08:32:21;13.40;;;9.10;;
25327;SDS011;13279;51.300;12.394;2023-06-22T08:34:54;17.30;;;8.35;;
25327;SDS011;13279;51.300;12.394;2023-06-22T08:37:22;10.27;;;7.07;;
25327;SDS011;13279;51.300;12.394;2023-06-22T08:39:55;14.43;;;8.65;;
25327;SDS011;13279;51.300;12.394;2023-06-22T08:42:23;13.07;;;7.65;;
25327;SDS011;13279;51.300;12.394;2023-06-22T08:44:50;9.85;;;8.45;;
25327;SDS011;13279;51.300;12.394;2023-06-22T08:47:19;9.75;;;8.27;;
25327;SDS011;13279;51.300;12.394;2023-06-22T08:49:47;12.18;;;7.30;;
25327;SDS011;13279;51.300;12.394;2023-06-22T08:52:32;8.57;;;7.45;;
25327;SDS011;13279;51.300;12.394;2023-06-22T08:55:03;10.25;;;8.27;;
25327;SDS011;13279;51.300;12.394;2023-06-22T08:57:41;13.60;;;8.18;;
25327;SDS011;13279;51.300;12.394;2023-06-22T09:00:18;10.50;;;7.32;;
25327;SDS011;13279;51.300;12.394;2023-06-22T09:02:55;12.13;;;8.60;;
25327;SDS011;13279;51.300;12.394;2023-06-22T09:08:14;10.52;;;8.05;;
25327;SDS011;13279;51.300;12.394;2023-06-22T09:10:41;7.78;;;6.75;;
25327;SDS011;13279;51.300;12.394;2023-06-22T09:13:09;9.20;;;6.45;;
25327;SDS011;13279;51.300;12.394;2023-06-22T09:15:36;11.35;;;7.10;;
25327;SDS011;13279;51.300;12.394;2023-06-22T09:18:04;8.50;;;6.50;;
25327;SDS011;13279;51.300;12.394;2023-06-22T09:20:42;7.32;;;6.55;;
25327;SDS011;13279;51.300;12.394;2023-06-22T09:23:21;10.27;;;7.30;;
25327;SDS011;13279;51.300;12.394;2023-06-22T09:25:54;6.95;;;6.03;;
25327;SDS011;13279;51.300;12.394;2023-06-22T09:28:27;10.95;;;6.68;;
25327;SDS011;13279;51.300;12.394;2023-06-22T09:30:57;8.00;;;6.40;;
25327;SDS011;13279;51.300;12.394;2023-06-22T09:33:26;10.57;;;6.32;;
25327;SDS011;13279;51.300;12.394;2023-06-22T09:35:58;6.90;;;6.20;;
25327;SDS011;13279;51.300;12.394;2023-06-22T09:38:29;6.97;;;6.05;;
25327;SDS011;13279;51.300;12.394;2023-06-22T09:47:17;9.93;;;6.28;;
25327;SDS011;13279;51.300;12.394;2023-06-22T09:49:50;12.73;;;6.30;;
25327;SDS011;13279;51.300;12.394;2023-06-22T09:52:32;14.73;;;5.97;;
25327;SDS011;13279;51.300;12.394;2023-06-22T09:55:13;8.45;;;6.15;;
25327;SDS011;13279;51.300;12.394;2023-06-22T09:57:57;9.80;;;6.45;;
25327;SDS011;13279;51.300;12.394;2023-06-22T10:00:47;9.13;;;6.30;;
25327;SDS011;13279;51.300;12.394;2023-06-22T10:03:20;7.63;;;5.78;;
25327;SDS011;13279;51.300;12.394;2023-06-22T10:05:56;8.80;;;5.57;;
25327;SDS011;13279;51.300;12.394;2023-06-22T10:08:34;6.88;;;5.30;;
25327;SDS011;13279;51.300;12.394;2023-06-22T10:11:05;6.32;;;5.50;;
25327;SDS011;13279;51.300;12.394;2023-06-22T10:13:40;5.72;;;4.78;;
25327;SDS011;13279;51.300;12.394;2023-06-22T10:16:12;5.60;;;5.10;;
25327;SDS011;13279;51.300;12.394;2023-06-22T10:18:44;10.77;;;5.30;;
25327;SDS011;13279;51.300;12.394;2023-06-22T10:21:25;6.85;;;5.18;;
25327;SDS011;13279;51.300;12.394;2023-06-22T10:23:54;6.20;;;5.38;;
25327;SDS011;13279;51.300;12.394;2023-06-22T10:26:23;5.85;;;5.35;;
25327;SDS011;13279;51.300;12.394;2023-06-22T10:28:51;6.07;;;5.35;;
25327;SDS011;13279;51.300;12.394;2023-06-22T10:31:21;10.07;;;5.95;;
25327;SDS011;13279;51.300;12.394;2023-06-22T10:33:49;5.88;;;5.30;;
25327;SDS011;13279;51.300;12.394;2023-06-22T10:36:16;6.07;;;5.57;;
25327;SDS011;13279;51.300;12.394;2023-06-22T10:38:47;7.15;;;5.47;;
25327;SDS011;13279;51.300;12.394;2023-06-22T10:41:15;8.68;;;5.70;;
25327;SDS011;13279;51.300;12.394;2023-06-22T10:43:53;9.52;;;5.60;;
25327;SDS011;13279;51.300;12.394;2023-06-22T10:46:21;6.78;;;4.93;;
25327;SDS011;13279;51.300;12.394;2023-06-22T10:48:58;6.15;;;5.55;;
25327;SDS011;13279;51.300;12.394;2023-06-22T10:51:31;9.35;;;5.10;;
25327;SDS011;13279;51.300;12.394;2023-06-22T10:54:06;7.70;;;6.55;;
25327;SDS011;13279;51.300;12.394;2023-06-22T10:56:34;6.28;;;5.10;;
25327;SDS011;13279;51.300;12.394;2023-06-22T10:59:14;7.45;;;5.88;;
25327;SDS011;13279;51.300;12.394;2023-06-22T11:01:42;6.55;;;5.95;;
25327;SDS011;13279;51.300;12.394;2023-06-22T11:04:13;7.30;;;5.65;;
25327;SDS011;13279;51.300;12.394;2023-06-22T11:06:45;9.68;;;5.60;;
25327;SDS011;13279;51.300;12.394;2023-06-22T11:09:22;7.15;;;5.72;;
25327;SDS011;13279;51.300;12.394;2023-06-22T11:11:59;6.43;;;5.82;;
25327;SDS011;13279;51.300;12.394;2023-06-22T11:14:36;6.28;;;5.70;;
25327;SDS011;13279;51.300;12.394;2023-06-22T11:17:05;6.13;;;5.57;;
25327;SDS011;13279;51.300;12.394;2023-06-22T11:19:37;6.15;;;5.28;;
25327;SDS011;13279;51.300;12.394;2023-06-22T11:22:08;6.72;;;5.97;;
25327;SDS011;13279;51.300;12.394;2023-06-22T11:24:39;7.72;;;5.95;;
25327;SDS011;13279;51.300;12.394;2023-06-22T11:27:16;7.38;;;6.65;;
25327;SDS011;13279;51.300;12.394;2023-06-22T11:29:51;7.30;;;5.68;;
25327;SDS011;13279;51.300;12.394;2023-06-22T11:32:22;7.07;;;5.90;;
25327;SDS011;13279;51.300;12.394;2023-06-22T11:35:06;7.47;;;6.00;;
25327;SDS011;13279;51.300;12.394;2023-06-22T11:37:36;6.05;;;5.55;;
25327;SDS011;13279;51.300;12.394;2023-06-22T11:40:09;7.50;;;5.97;;
25327;SDS011;13279;51.300;12.394;2023-06-22T11:42:49;6.30;;;5.70;;
25327;SDS011;13279;51.300;12.394;2023-06-22T11:45:32;6.57;;;6.05;;
25327;SDS011;13279;51.300;12.394;2023-06-22T11:48:22;7.72;;;5.80;;
25327;SDS011;13279;51.300;12.394;2023-06-22T11:50:58;6.40;;;5.57;;
25327;SDS011;13279;51.300;12.394;2023-06-22T11:53:40;12.10;;;6.22;;
25327;SDS011;13279;51.300;12.394;2023-06-22T11:56:11;7.10;;;6.15;;
25327;SDS011;13279;51.300;12.394;2023-06-22T11:58:50;8.75;;;5.95;;
25327;SDS011;13279;51.300;12.394;2023-06-22T12:01:40;6.90;;;6.22;;
25327;SDS011;13279;51.300;12.394;2023-06-22T12:04:12;9.27;;;6.03;;
25327;SDS011;13279;51.300;12.394;2023-06-22T12:07:03;10.32;;;5.95;;
25327;SDS011;13279;51.300;12.394;2023-06-22T12:09:47;8.60;;;5.85;;
25327;SDS011;13279;51.300;12.394;2023-06-22T12:12:20;10.20;;;6.78;;
25327;SDS011;13279;51.300;12.394;2023-06-22T12:14:59;5.90;;;5.40;;
25327;SDS011;13279;51.300;12.394;2023-06-22T12:17:37;7.25;;;5.90;;
25327;SDS011;13279;51.300;12.394;2023-06-22T12:20:10;8.80;;;5.97;;
25327;SDS011;13279;51.300;12.394;2023-06-22T12:22:43;7.35;;;5.60;;
25327;SDS011;13279;51.300;12.394;2023-06-22T12:25:37;9.02;;;5.80;;
25327;SDS011;13279;51.300;12.394;2023-06-22T12:28:19;6.10;;;5.60;;
25327;SDS011;13279;51.300;12.394;2023-06-22T12:30:58;6.40;;;5.80;;
25327;SDS011;13279;51.300;12.394;2023-06-22T12:33:37;8.93;;;6.70;;
25327;SDS011;13279;51.300;12.394;2023-06-22T12:36:20;11.15;;;6.45;;
25327;SDS011;13279;51.300;12.394;2023-06-22T12:39:09;8.25;;;5.30;;
25327;SDS011;13279;51.300;12.394;2023-06-22T12:41:51;8.10;;;5.90;;
25327;SDS011;13279;51.300;12.394;2023-06-22T12:44:32;8.00;;;6.50;;
25327;SDS011;13279;51.300;12.394;2023-06-22T12:47:11;6.43;;;5.82;;
25327;SDS011;13279;51.300;12.394;2023-06-22T12:49:44;6.90;;;6.13;;
25327;SDS011;13279;51.300;12.394;2023-06-22T12:52:24;8.32;;;5.53;;
25327;SDS011;13279;51.300;12.394;2023-06-22T12:55:15;8.98;;;6.00;;
25327;SDS011;13279;51.300;12.394;2023-06-22T12:58:02;9.70;;;5.93;;
25327;SDS011;13279;51.300;12.394;2023-06-22T13:00:55;6.75;;;6.15;;
25327;SDS011;13279;51.300;12.394;2023-06-22T13:03:32;6.43;;;5.93;;
25327;SDS011;13279;51.300;12.394;2023-06-22T13:06:11;8.27;;;6.38;;
25327;SDS011;13279;51.300;12.394;2023-06-22T13:08:58;7.32;;;5.85;;
25327;SDS011;13279;51.300;12.394;2023-06-22T13:12:01;7.10;;;6.40;;
25327;SDS011;13279;51.300;12.394;2023-06-22T13:14:38;7.80;;;6.32;;
25327;SDS011;13279;51.300;12.394;2023-06-22T13:17:27;7.70;;;6.50;;
25327;SDS011;13279;51.300;12.394;2023-06-22T13:20:04;11.60;;;6.25;;
25327;SDS011;13279;51.300;12.394;2023-06-22T13:22:53;7.80;;;6.15;;
25327;SDS011;13279;51.300;12.394;2023-06-22T13:25:26;6.97;;;5.47;;
25327;SDS011;13279;51.300;12.394;2023-06-22T13:28:14;9.68;;;6.03;;
25327;SDS011;13279;51.300;12.394;2023-06-22T13:33:45;8.65;;;6.07;;
25327;SDS011;13279;51.300;12.394;2023-06-22T13:36:19;12.98;;;5.80;;
25327;SDS011;13279;51.300;12.394;2023-06-22T13:42:26;7.07;;;5.88;;
25327;SDS011;13279;51.300;12.394;2023-06-22T13:45:01;9.38;;;5.95;;
25327;SDS011;13279;51.300;12.394;2023-06-22T13:47:47;6.25;;;5.72;;
25327;SDS011;13279;51.300;12.394;2023-06-22T13:50:30;6.65;;;5.88;;
25327;SDS011;13279;51.300;12.394;2023-06-22T13:53:17;8.27;;;6.10;;
25327;SDS011;13279;51.300;12.394;2023-06-22T13:55:47;9.80;;;6.38;;
25327;SDS011;13279;51.300;12.394;2023-06-22T13:58:25;7.30;;;6.30;;
25327;SDS011;13279;51.300;12.394;2023-06-22T14:01:12;6.90;;;6.20;;
25327;SDS011;13279;51.300;12.394;2023-06-22T14:03:52;7.63;;;6.47;;
25327;SDS011;13279;51.300;12.394;2023-06-22T14:06:59;9.63;;;6.25;;
25327;SDS011;13279;51.300;12.394;2023-06-22T14:09:45;9.13;;;6.55;;
25327;SDS011;13279;51.300;12.394;2023-06-22T14:12:19;8.00;;;6.75;;
25327;SDS011;13279;51.300;12.394;2023-06-22T14:15:01;8.18;;;6.07;;
25327;SDS011;13279;51.300;12.394;2023-06-22T14:17:39;6.78;;;6.07;;
25327;SDS011;13279;51.300;12.394;2023-06-22T14:20:15;10.65;;;6.72;;
25327;SDS011;13279;51.300;12.394;2023-06-22T14:23:27;6.13;;;5.45;;
25327;SDS011;13279;51.300;12.394;2023-06-22T14:26:13;7.53;;;5.85;;
25327;SDS011;13279;51.300;12.394;2023-06-22T14:29:07;10.10;;;6.15;;
25327;SDS011;13279;51.300;12.394;2023-06-22T14:32:03;8.88;;;6.38;;
25327;SDS011;13279;51.300;12.394;2023-06-22T14:38:42;7.38;;;5.75;;
25327;SDS011;13279;51.300;12.394;2023-06-22T14:41:19;8.65;;;6.35;;
25327;SDS011;13279;51.300;12.394;2023-06-22T14:44:11;6.90;;;6.03;;
25327;SDS011;13279;51.300;12.394;2023-06-22T14:47:06;8.77;;;5.82;;
25327;SDS011;13279;51.300;12.394;2023-06-22T14:49:52;7.13;;;6.43;;
25327;SDS011;13279;51.300;12.394;2023-06-22T14:53:21;9.40;;;6.38;;
25327;SDS011;13279;51.300;12.394;2023-06-22T14:56:33;6.78;;;6.13;;
25327;SDS011;13279;51.300;12.394;2023-06-22T14:59:15;6.10;;;5.60;;
25327;SDS011;13279;51.300;12.394;2023-06-22T15:02:10;8.98;;;6.53;;
25327;SDS011;13279;51.300;12.394;2023-06-22T15:04:55;7.57;;;6.82;;
25327;SDS011;13279;51.300;12.394;2023-06-22T15:08:12;9.20;;;6.90;;
25327;SDS011;13279;51.300;12.394;2023-06-22T15:10:40;7.78;;;6.55;;
25327;SDS011;13279;51.300;12.394;2023-06-22T15:13:15;6.93;;;6.22;;
25327;SDS011;13279;51.300;12.394;2023-06-22T15:15:50;11.07;;;7.20;;
25327;SDS011;13279;51.300;12.394;2023-06-22T15:18:30;8.55;;;7.13;;
25327;SDS011;13279;51.300;12.394;2023-06-22T15:20:59;7.00;;;6.32;;
25327;SDS011;13279;51.300;12.394;2023-06-22T15:23:38;9.45;;;7.13;;
25327;SDS011;13279;51.300;12.394;2023-06-22T15:26:06;8.82;;;6.75;;